Terminal Aerodrome Forecast
Issued by NWS Atlanta, GA

Home | Current Version | Previous Version | Text Only | Print | Product List | Glossary On
Versions: 1 2 3 4 5 6 7 8 9 10 11 12 13 14 15 16 17 18 19 20 21 22 23 24 25 26 27
925
FTUS42 KFFC 271120
TAFCSG
TAF
KCSG 271120Z 2712/2812 VRB03KT P6SM FEW012 BKN080
     FM271400 09007KT P6SM VCSH BKN025
     FM271900 08012G19KT P6SM -SHRA BKN035 PROB30 2721/2801 4SM
      -TSRA OVC025CB
     FM280100 08012KT 6SM -SHRA SCT004 OVC011
     FM280600 06014G22KT 3SM -SHRA BR BKN004 OVC010=

USA.gov is the U.S. government's official web portal to all federal, state and local government web resources and services.